Terminal Aerodrome Forecast
Issued by NWS

Home | Current Version | Previous Version | Text Only | Print | Product List | Glossary On
Versions: 1 2 3 4 5 6 7 8 9 10 11 12 13
000
FTUS44 KJAN 282320
TAFHKS
TAF
KHKS 282320Z 2900/2924 13009KT P6SM VCTS SCT025CB BKN050
     FM290100 13005KT P6SM SCT100 SCT250
     FM291100 14004KT P6SM BKN015
     FM291500 15010KT P6SM SCT025 BKN040=

USA.gov is the U.S. government's official web portal to all federal, state and local government web resources and services.